Time;durP1;ratioP1;P1;durP2;ratioP2;P2;SDS_P1;SDS_P2;PMS_P1;PMS_P2;Temp;Humidity;BMP_temperature;BMP_pressure;BME280_temperature;BME280_humidity;BME280_pressure;Samples;Min_cycle;Max_cycle;Signal;HPM_P1;HPM_P2
2022/02/15 00:02:25;;;;;;;52.17;18.87;;;-0.50;99.90;;;;;;5094698;28;20322;-75
2022/02/15 00:05:12;;;;;;;50.90;18.47;;;-0.40;99.90;;;;;;5095081;28;20286;-76
2022/02/15 00:08:01;;;;;;;66.27;21.13;;;-0.40;99.90;;;;;;5094275;28;20199;-75
2022/02/15 00:10:49;;;;;;;59.30;20.50;;;-0.40;99.90;;;;;;5094273;28;20305;-75
2022/02/15 00:13:36;;;;;;;74.17;24.80;;;-0.30;99.90;;;;;;5094547;28;20310;-75
2022/02/15 00:16:25;;;;;;;62.23;20.87;;;-0.30;99.90;;;;;;5093776;28;20198;-75
2022/02/15 00:19:13;;;;;;;68.73;21.70;;;-0.30;99.90;;;;;;5093937;28;20196;-75
2022/02/15 00:22:00;;;;;;;75.10;24.03;;;-0.30;99.90;;;;;;5093268;28;20207;-75
2022/02/15 00:24:48;;;;;;;103.43;31.30;;;-0.40;99.90;;;;;;5094086;28;20716;-75
2022/02/15 00:27:36;;;;;;;67.60;21.17;;;-0.40;99.90;;;;;;5093705;28;20211;-75
2022/02/15 00:30:23;;;;;;;108.87;29.50;;;-0.40;99.90;;;;;;5094736;28;20188;-76
2022/02/15 00:33:12;;;;;;;115.50;29.83;;;-0.40;99.90;;;;;;5092984;28;20196;-75
2022/02/15 00:36:00;;;;;;;142.37;31.80;;;-0.40;99.90;;;;;;5093457;28;20192;-75
2022/02/15 00:38:47;;;;;;;338.07;59.00;;;-0.40;99.90;;;;;;5094454;28;20203;-75
2022/02/15 00:41:35;;;;;;;186.57;36.10;;;-0.40;99.90;;;;;;5094130;28;20675;-75
2022/02/15 00:44:22;;;;;;;272.97;55.00;;;-0.40;99.90;;;;;;5094238;28;20246;-75
2022/02/15 00:47:10;;;;;;;174.30;40.57;;;-0.50;99.90;;;;;;5094150;28;20195;-75
2022/02/15 00:49:59;;;;;;;44.13;16.40;;;-0.50;99.90;;;;;;5073794;28;20702;-76
2022/02/15 00:52:46;;;;;;;64.10;21.80;;;-0.50;99.90;;;;;;5074196;28;20208;-75
2022/02/15 00:55:34;;;;;;;49.63;17.53;;;-0.50;99.90;;;;;;5072953;28;20567;-75
2022/02/15 00:58:22;;;;;;;47.90;17.97;;;-0.50;99.90;;;;;;5073373;28;20201;-75
2022/02/15 01:01:09;;;;;;;65.00;21.07;;;-0.60;99.90;;;;;;5072951;28;20273;-75
2022/02/15 01:03:57;;;;;;;61.03;22.37;;;-0.60;99.90;;;;;;5072728;28;20270;-75
2022/02/15 01:06:46;;;;;;;51.43;20.47;;;-0.60;99.90;;;;;;5073332;28;20614;-75
2022/02/15 01:09:33;;;;;;;52.83;19.67;;;-0.60;99.90;;;;;;5073464;28;20200;-75
2022/02/15 01:12:21;;;;;;;54.70;20.43;;;-0.60;99.90;;;;;;5073062;28;20199;-75
2022/02/15 01:15:09;;;;;;;58.70;20.63;;;-0.60;99.90;;;;;;5072704;28;20707;-75
2022/02/15 01:17:57;;;;;;;49.67;17.43;;;-0.70;99.90;;;;;;5072712;28;20199;-75
2022/02/15 01:20:45;;;;;;;57.03;19.73;;;-0.70;99.90;;;;;;5073162;28;20196;-76
2022/02/15 01:23:34;;;;;;;49.40;19.40;;;-0.70;99.90;;;;;;5073543;28;20588;-75
2022/02/15 01:26:22;;;;;;;48.43;20.43;;;-0.60;99.90;;;;;;5072930;28;20248;-75
2022/02/15 01:29:09;;;;;;;52.67;18.93;;;-0.60;99.90;;;;;;5073499;28;20257;-75
2022/02/15 01:31:57;;;;;;;55.17;19.63;;;-0.60;99.90;;;;;;5072743;28;20203;-75
2022/02/15 01:34:44;;;;;;;46.13;17.97;;;-0.50;99.90;;;;;;5072737;28;20213;-76
2022/02/15 01:37:32;;;;;;;43.83;17.40;;;-0.50;99.90;;;;;;5072628;28;20278;-75
2022/02/15 01:40:21;;;;;;;53.20;18.23;;;-0.50;99.90;;;;;;5073079;28;20201;-75
2022/02/15 01:43:08;;;;;;;45.50;18.23;;;-0.50;99.90;;;;;;5073297;28;20200;-75
2022/02/15 01:45:56;;;;;;;43.63;18.37;;;-0.50;99.90;;;;;;5072549;28;20221;-75
2022/02/15 01:48:46;;;;;;;42.10;18.70;;;-0.50;99.90;;;;;;5072604;28;20265;-75
2022/02/15 01:51:34;;;;;;;44.80;17.17;;;-0.50;99.90;;;;;;5071405;28;20618;-75
2022/02/15 01:54:22;;;;;;;47.90;18.97;;;-0.50;99.90;;;;;;5071609;28;20216;-75
2022/02/15 01:57:11;;;;;;;52.53;19.23;;;-0.50;99.90;;;;;;5071454;28;20197;-76
2022/02/15 01:59:58;;;;;;;42.67;18.00;;;-0.60;99.90;;;;;;5071982;28;20315;-75
2022/02/15 02:02:46;;;;;;;46.50;17.60;;;-0.60;99.90;;;;;;5071798;28;20201;-75
2022/02/15 02:05:49;;;;;;;46.50;17.70;;;-0.70;99.90;;;;;;5070956;28;20725;-75
2022/02/15 02:08:36;;;;;;;39.57;16.43;;;-0.70;99.90;;;;;;5073483;28;20204;-75
2022/02/15 02:11:24;;;;;;;41.80;17.03;;;-0.70;99.90;;;;;;5073599;28;20225;-75
2022/02/15 02:14:14;;;;;;;41.27;17.77;;;-0.70;99.90;;;;;;5071623;28;20220;-75
2022/02/15 02:17:01;;;;;;;39.33;16.43;;;-0.70;99.90;;;;;;5073025;28;20586;-75
2022/02/15 02:19:49;;;;;;;41.60;15.63;;;-0.70;99.90;;;;;;5072765;28;20686;-75
2022/02/15 02:22:38;;;;;;;41.43;16.07;;;-0.70;99.90;;;;;;5072594;28;20680;-75
2022/02/15 02:25:25;;;;;;;39.97;16.97;;;-0.80;99.90;;;;;;5072971;28;20197;-75
2022/02/15 02:28:13;;;;;;;38.50;16.43;;;-0.80;99.90;;;;;;5072585;28;20204;-75
2022/02/15 02:31:00;;;;;;;43.53;17.53;;;-0.90;99.90;;;;;;5072064;28;20204;-75
2022/02/15 02:33:48;;;;;;;48.23;17.93;;;-0.90;99.90;;;;;;5072640;28;20197;-76
2022/02/15 02:36:44;;;;;;;49.73;18.93;;;-1.00;99.90;;;;;;5071990;28;20608;-76
2022/02/15 02:39:33;;;;;;;53.23;18.60;;;-0.90;99.90;;;;;;5073487;28;20208;-75
2022/02/15 02:42:22;;;;;;;45.97;18.23;;;-1.00;99.90;;;;;;5072750;28;20193;-75
2022/02/15 02:45:12;;;;;;;47.70;18.80;;;-1.10;99.90;;;;;;5074819;28;20201;-75
2022/02/15 02:48:00;;;;;;;46.03;17.37;;;-1.10;99.90;;;;;;5075953;28;20236;-75
2022/02/15 02:50:47;;;;;;;42.77;18.37;;;-1.10;99.90;;;;;;5089666;28;20655;-75
2022/02/15 02:53:35;;;;;;;42.53;17.27;;;-1.10;99.90;;;;;;5095645;28;20192;-75
2022/02/15 02:56:24;;;;;;;37.33;15.93;;;-1.10;99.90;;;;;;5096098;28;20215;-75
2022/02/15 02:59:11;;;;;;;45.40;16.60;;;-1.00;99.90;;;;;;5096243;28;20674;-75
2022/02/15 03:01:59;;;;;;;37.37;17.13;;;-1.10;99.90;;;;;;5095991;28;20732;-75
2022/02/15 03:04:47;;;;;;;35.83;16.50;;;-1.10;99.90;;;;;;5095984;28;20377;-75
2022/02/15 03:07:35;;;;;;;43.37;18.03;;;-1.10;99.90;;;;;;5095503;28;20661;-75
2022/02/15 03:10:22;;;;;;;38.10;16.97;;;-1.10;99.90;;;;;;5095154;28;20247;-76
2022/02/15 03:13:11;;;;;;;40.10;16.33;;;-1.10;99.90;;;;;;5095844;28;20223;-75
2022/02/15 03:15:59;;;;;;;46.87;17.70;;;-1.10;99.90;;;;;;5096304;28;20257;-75
2022/02/15 03:18:47;;;;;;;40.27;19.00;;;-1.10;99.90;;;;;;5096022;28;20441;-75
2022/02/15 03:21:34;;;;;;;44.83;18.20;;;-1.10;99.90;;;;;;5095355;28;20200;-75
2022/02/15 03:24:22;;;;;;;48.27;19.27;;;-1.20;99.90;;;;;;5094876;28;20195;-76
2022/02/15 03:27:09;;;;;;;44.50;18.50;;;-1.20;99.90;;;;;;5095083;28;20227;-75
2022/02/15 03:29:59;;;;;;;47.40;19.30;;;-1.20;99.90;;;;;;5095621;28;20199;-75
2022/02/15 03:32:46;;;;;;;54.63;23.13;;;-1.20;99.90;;;;;;5095742;28;20679;-75
2022/02/15 03:35:34;;;;;;;61.87;24.77;;;-1.20;99.90;;;;;;5096052;28;20288;-76
2022/02/15 03:38:21;;;;;;;51.83;20.83;;;-1.20;99.90;;;;;;5095663;28;20276;-75
2022/02/15 03:44:14;;;;;;;43.63;18.37;;;-1.20;99.90;;;;;;5095363;28;20188;-75
2022/02/15 03:47:03;;;;;;;42.50;18.83;;;-1.20;99.90;;;;;;5094825;28;20578;-76
2022/02/15 03:49:51;;;;;;;51.07;20.20;;;-1.20;99.90;;;;;;5094502;28;20226;-75
2022/02/15 03:52:39;;;;;;;43.90;18.50;;;-1.20;99.90;;;;;;5095356;28;20207;-76
2022/02/15 03:55:27;;;;;;;44.00;18.43;;;-1.20;99.90;;;;;;5095278;28;20220;-75
2022/02/15 03:58:14;;;;;;;44.87;19.30;;;-1.30;99.90;;;;;;5094679;28;20200;-75
2022/02/15 04:01:03;;;;;;;45.03;19.30;;;-1.30;99.90;;;;;;5094301;28;20655;-75
2022/02/15 04:03:52;;;;;;;42.97;18.17;;;-1.30;99.90;;;;;;5095381;28;20200;-75
2022/02/15 04:06:39;;;;;;;53.67;21.40;;;-1.40;99.90;;;;;;5094383;28;20199;-75
2022/02/15 04:09:27;;;;;;;49.20;20.70;;;-1.40;99.90;;;;;;5094022;28;20791;-76
2022/02/15 04:12:15;;;;;;;54.17;20.30;;;-1.40;99.90;;;;;;5094481;28;20192;-76
2022/02/15 04:15:02;;;;;;;52.37;20.47;;;-1.40;99.90;;;;;;5094123;28;20223;-75
2022/02/15 04:17:50;;;;;;;53.77;21.07;;;-1.50;99.90;;;;;;5094810;28;20564;-75
2022/02/15 04:20:39;;;;;;;46.70;19.80;;;-1.50;99.90;;;;;;5094418;28;20191;-75
2022/02/15 04:23:27;;;;;;;43.83;17.07;;;-1.50;99.90;;;;;;5094442;28;20586;-75
2022/02/15 04:26:14;;;;;;;44.50;17.27;;;-1.60;99.90;;;;;;5093686;28;20288;-76
2022/02/15 04:29:02;;;;;;;45.97;18.00;;;-1.60;99.90;;;;;;5093761;28;20286;-76
2022/02/15 04:31:50;;;;;;;42.80;17.93;;;-1.60;99.90;;;;;;5094297;28;20196;-76
2022/02/15 04:34:39;;;;;;;44.77;18.90;;;-1.70;99.90;;;;;;5093551;28;20207;-76
2022/02/15 04:37:28;;;;;;;44.77;18.43;;;-1.70;99.90;;;;;;5094178;28;20192;-76
2022/02/15 04:40:17;;;;;;;48.43;17.70;;;-1.70;99.90;;;;;;5093435;28;20208;-76
2022/02/15 04:43:04;;;;;;;47.63;19.03;;;-1.70;99.90;;;;;;5093610;28;20195;-76
2022/02/15 04:45:54;;;;;;;35.20;15.93;;;-1.70;99.90;;;;;;5094002;28;20195;-76
2022/02/15 04:48:43;;;;;;;39.93;16.67;;;-1.80;99.90;;;;;;5083888;28;20229;-76
2022/02/15 04:51:31;;;;;;;38.20;16.07;;;-1.80;99.90;;;;;;5074109;28;20222;-76
2022/02/15 04:54:22;;;;;;;38.33;15.77;;;-1.80;99.90;;;;;;5073625;28;20203;-76
2022/02/15 04:57:14;;;;;;;36.83;15.90;;;-1.80;99.90;;;;;;5073514;28;20192;-76
2022/02/15 05:00:02;;;;;;;41.70;17.73;;;-1.80;99.90;;;;;;5073053;28;20716;-76
2022/02/15 05:02:53;;;;;;;33.50;14.47;;;-1.90;99.90;;;;;;5074891;28;20289;-76
2022/02/15 05:05:41;;;;;;;34.77;14.50;;;-1.90;99.90;;;;;;5073997;28;20275;-76
2022/02/15 05:08:31;;;;;;;40.20;15.57;;;-1.90;99.90;;;;;;5072483;28;20200;-76
2022/02/15 05:11:23;;;;;;;34.63;14.90;;;-1.90;99.90;;;;;;5074300;28;20266;-76
2022/02/15 05:14:14;;;;;;;35.70;15.43;;;-1.90;99.90;;;;;;5072886;28;20742;-76
2022/02/15 05:17:02;;;;;;;37.20;15.90;;;-2.00;99.90;;;;;;5073736;28;20295;-76
2022/02/15 05:19:49;;;;;;;74.23;27.33;;;-2.00;99.90;;;;;;5073777;28;20205;-76
2022/02/15 05:22:37;;;;;;;77.03;28.73;;;-2.00;99.90;;;;;;5073783;28;20599;-76
2022/02/15 05:25:24;;;;;;;47.53;20.97;;;-2.10;99.90;;;;;;5073582;28;20193;-76
2022/02/15 05:28:13;;;;;;;44.57;18.87;;;-2.10;99.90;;;;;;5072643;28;20196;-76
2022/02/15 05:31:02;;;;;;;35.67;15.57;;;-2.10;99.90;;;;;;5072160;28;20208;-76
2022/02/15 05:33:49;;;;;;;45.63;19.20;;;-2.00;99.90;;;;;;5073419;28;20197;-76
2022/02/15 05:36:37;;;;;;;37.63;16.47;;;-2.00;99.90;;;;;;5073165;28;20253;-76
2022/02/15 05:39:26;;;;;;;40.13;15.90;;;-2.00;99.90;;;;;;5074391;28;20192;-76
2022/02/15 05:42:21;;;;;;;34.93;15.17;;;-2.00;99.90;;;;;;5072181;28;20682;-76
2022/02/15 05:45:10;;;;;;;37.37;15.10;;;-2.00;99.90;;;;;;5072678;28;20223;-76
2022/02/15 05:47:58;;;;;;;40.00;16.83;;;-2.00;99.90;;;;;;5075044;28;20228;-75
2022/02/15 05:50:52;;;;;;;37.33;16.80;;;-2.00;99.90;;;;;;5092345;28;20211;-75
2022/02/15 05:53:40;;;;;;;32.63;15.77;;;-2.00;99.90;;;;;;5092751;28;20576;-75
2022/02/15 05:56:28;;;;;;;33.70;14.63;;;-2.00;99.90;;;;;;5092589;28;20219;-75
2022/02/15 05:59:15;;;;;;;32.83;14.83;;;-2.00;99.90;;;;;;5093940;28;20760;-75
2022/02/15 06:02:05;;;;;;;30.50;13.63;;;-2.00;99.90;;;;;;5091993;28;20192;-75
2022/02/15 06:04:53;;;;;;;33.73;14.67;;;-1.90;99.90;;;;;;5091552;28;20206;-75
2022/02/15 06:07:40;;;;;;;43.57;17.17;;;-1.90;99.90;;;;;;5092400;28;20236;-75
2022/02/15 06:10:28;;;;;;;34.93;15.47;;;-1.90;99.90;;;;;;5092313;28;20302;-76
2022/02/15 06:13:16;;;;;;;37.30;16.13;;;-1.90;99.90;;;;;;5092619;28;20199;-75
2022/02/15 06:16:04;;;;;;;31.20;13.70;;;-1.80;99.90;;;;;;5091884;28;20622;-75
2022/02/15 06:18:56;;;;;;;36.33;16.10;;;-1.80;99.90;;;;;;5091477;28;20218;-74
2022/02/15 06:21:43;;;;;;;33.60;15.67;;;-1.70;99.90;;;;;;5092502;28;20199;-75
2022/02/15 06:24:31;;;;;;;43.07;16.93;;;-1.70;99.90;;;;;;5092168;28;20199;-75
2022/02/15 06:27:19;;;;;;;52.30;23.00;;;-1.70;99.90;;;;;;5091823;28;20658;-74
2022/02/15 06:30:08;;;;;;;48.97;17.80;;;-1.60;99.90;;;;;;5091956;28;20204;-74
2022/02/15 06:32:55;;;;;;;51.23;22.30;;;-1.50;99.90;;;;;;5091734;28;20578;-75
2022/02/15 06:35:45;;;;;;;54.00;22.73;;;-1.50;99.90;;;;;;5092634;28;20589;-75
2022/02/15 06:38:32;;;;;;;67.20;28.67;;;-1.50;99.90;;;;;;5091578;28;20207;-74
2022/02/15 06:41:20;;;;;;;52.73;22.80;;;-1.30;99.90;;;;;;5091865;28;20210;-75
2022/02/15 06:44:08;;;;;;;51.40;22.27;;;-1.20;99.90;;;;;;5092048;28;20207;-75
2022/02/15 06:46:55;;;;;;;36.20;16.93;;;-1.10;99.90;;;;;;5092422;28;20563;-75
2022/02/15 06:49:43;;;;;;;44.13;19.63;;;-0.90;99.90;;;;;;5092138;28;20228;-75
2022/02/15 06:52:32;;;;;;;43.03;18.40;;;-0.90;99.90;;;;;;5083177;28;20257;-75
2022/02/15 06:55:20;;;;;;;43.30;20.10;;;-0.80;99.90;;;;;;5091523;28;20200;-74
2022/02/15 06:58:07;;;;;;;41.20;19.33;;;-0.60;99.90;;;;;;5091437;28;20196;-75
2022/02/15 07:00:55;;;;;;;35.63;15.30;;;-0.50;99.90;;;;;;5091667;28;20712;-74
2022/02/15 07:03:43;;;;;;;33.30;16.47;;;-0.40;99.90;;;;;;5092073;28;20211;-75
2022/02/15 07:06:30;;;;;;;58.07;24.63;;;-0.30;99.90;;;;;;5083538;28;20195;-75
2022/02/15 07:09:19;;;;;;;44.83;19.30;;;-0.10;99.90;;;;;;5091736;28;20214;-74
2022/02/15 07:12:08;;;;;;;62.37;26.67;;;0.10;99.90;;;;;;5092019;28;20571;-74
2022/02/15 07:14:55;;;;;;;48.67;22.20;;;0.20;99.90;;;;;;5091329;28;20200;-75
2022/02/15 07:17:43;;;;;;;45.30;20.67;;;0.30;99.90;;;;;;5092040;28;20721;-74
2022/02/15 07:20:31;;;;;;;76.63;31.20;;;0.50;99.90;;;;;;5091802;28;20281;-74
2022/02/15 07:23:18;;;;;;;42.87;19.07;;;0.70;99.90;;;;;;5091186;28;20203;-74
2022/02/15 07:26:27;;;;;;;45.10;20.20;;;0.90;99.90;;;;;;5091038;28;20192;-74
2022/02/15 07:29:22;;;;;;;39.23;17.53;;;1.10;99.90;;;;;;5090784;28;20200;-74
2022/02/15 07:32:10;;;;;;;36.97;17.07;;;1.30;99.90;;;;;;5095272;28;20207;-74
2022/02/15 07:34:58;;;;;;;43.10;19.17;;;1.60;99.90;;;;;;5094522;28;20244;-74
2022/02/15 07:37:47;;;;;;;43.77;18.93;;;1.80;99.90;;;;;;5094541;28;20614;-74
2022/02/15 07:40:35;;;;;;;39.03;17.23;;;2.00;99.90;;;;;;5095267;28;20568;-74
2022/02/15 07:43:25;;;;;;;40.17;17.13;;;2.20;99.90;;;;;;5094294;28;20207;-75
2022/02/15 07:46:13;;;;;;;38.37;16.70;;;2.40;99.90;;;;;;5094542;28;20207;-75
2022/02/15 07:49:01;;;;;;;34.73;16.33;;;2.60;99.90;;;;;;5095069;28;20227;-74
2022/02/15 07:51:50;;;;;;;32.97;15.97;;;2.80;99.90;;;;;;5094652;28;20203;-74
2022/02/15 07:54:38;;;;;;;36.53;16.93;;;3.00;99.90;;;;;;5094626;28;20203;-74
2022/02/15 07:57:26;;;;;;;35.93;16.07;;;3.20;99.90;;;;;;5094253;28;20213;-74
2022/02/15 08:00:39;;;;;;;39.20;17.83;;;3.40;99.90;;;;;;5093977;28;20207;-74
2022/02/15 08:03:40;;;;;;;40.70;17.87;;;3.70;99.90;;;;;;5094513;28;20279;-74
2022/02/15 08:06:39;;;;;;;37.17;16.93;;;3.90;99.90;;;;;;5094392;28;20582;-74
2022/02/15 08:09:35;;;;;;;39.73;17.37;;;4.10;99.90;;;;;;5094241;28;20226;-74
2022/02/15 08:12:29;;;;;;;37.73;17.30;;;4.30;99.90;;;;;;5094318;28;20196;-74
2022/02/15 08:15:39;;;;;;;38.27;17.90;;;4.50;99.90;;;;;;5094342;28;20672;-74
2022/02/15 08:18:31;;;;;;;35.43;17.10;;;4.70;99.90;;;;;;5093999;28;20191;-74
2022/02/15 08:21:26;;;;;;;35.57;16.90;;;5.00;99.90;;;;;;5094360;28;20691;-74
2022/02/15 08:24:14;;;;;;;54.77;22.63;;;5.20;99.90;;;;;;5094356;28;20192;-74
2022/02/15 08:27:02;;;;;;;44.40;19.23;;;5.40;99.90;;;;;;5094153;28;20188;-74
2022/02/15 08:29:50;;;;;;;31.60;14.73;;;5.70;99.90;;;;;;5093879;28;20204;-74
2022/02/15 08:32:37;;;;;;;32.77;17.17;;;5.90;97.60;;;;;;5094474;28;20292;-73
2022/02/15 08:35:27;;;;;;;31.80;16.90;;;5.80;93.00;;;;;;5095201;28;20570;-73
2022/02/15 08:38:14;;;;;;;42.00;18.97;;;5.80;93.20;;;;;;5093924;28;20196;-73
2022/02/15 08:41:02;;;;;;;34.23;17.07;;;5.90;93.70;;;;;;5093534;28;20200;-74
2022/02/15 08:43:50;;;;;;;38.33;18.07;;;6.10;92.30;;;;;;5092640;28;20662;-73
2022/02/15 08:46:37;;;;;;;36.07;18.87;;;6.20;92.30;;;;;;5093830;28;20196;-75
2022/02/15 08:49:26;;;;;;;36.90;19.00;;;6.30;91.20;;;;;;5093382;28;20230;-73
2022/02/15 08:52:15;;;;;;;42.13;17.20;;;6.30;90.50;;;;;;5093291;28;20200;-74
2022/02/15 08:55:08;;;;;;;38.73;18.57;;;6.30;90.80;;;;;;5093458;28;20192;-75
2022/02/15 08:58:05;;;;;;;36.70;17.90;;;6.60;93.60;;;;;;5094532;28;20597;-75
2022/02/15 09:01:02;;;;;;;30.40;15.93;;;6.80;90.00;;;;;;5093469;28;20207;-75
2022/02/15 09:03:57;;;;;;;38.90;16.80;;;6.70;84.90;;;;;;5092981;28;20283;-75
2022/02/15 09:06:47;;;;;;;42.70;17.70;;;6.90;86.00;;;;;;5092415;28;20191;-75
2022/02/15 09:09:41;;;;;;;33.43;15.53;;;7.00;85.20;;;;;;5093775;28;20651;-75
2022/02/15 09:12:36;;;;;;;31.40;16.10;;;7.30;83.10;;;;;;5093004;28;20200;-75
2022/02/15 09:15:23;;;;;;;28.47;13.93;;;7.20;82.50;;;;;;5093203;28;20204;-74
2022/02/15 09:18:11;;;;;;;33.60;16.00;;;7.30;80.00;;;;;;5092666;28;20265;-75
2022/02/15 09:20:58;;;;;;;33.57;15.83;;;7.40;80.40;;;;;;5093090;28;20201;-76
2022/02/15 09:23:46;;;;;;;28.47;14.10;;;7.50;77.50;;;;;;5093382;28;20196;-75
2022/02/15 09:26:35;;;;;;;31.93;16.20;;;7.70;77.00;;;;;;5092780;28;20567;-75
2022/02/15 09:29:23;;;;;;;37.23;16.17;;;7.90;77.10;;;;;;5093748;28;20580;-75
2022/02/15 09:32:11;;;;;;;35.73;15.83;;;8.30;74.50;;;;;;5092588;28;20284;-75
2022/02/15 09:34:58;;;;;;;37.67;16.57;;;8.60;73.30;;;;;;5092632;28;20204;-75
2022/02/15 09:37:46;;;;;;;36.57;16.30;;;8.90;71.60;;;;;;5091695;28;20214;-75
2022/02/15 09:40:34;;;;;;;31.07;14.73;;;9.20;69.80;;;;;;5092965;28;20200;-74
2022/02/15 09:43:22;;;;;;;30.77;15.27;;;9.40;66.80;;;;;;5092702;28;20199;-74
2022/02/15 09:46:13;;;;;;;32.60;15.57;;;9.30;66.40;;;;;;5092274;28;20571;-75
2022/02/15 09:49:01;;;;;;;34.23;13.97;;;9.30;64.50;;;;;;5091746;28;20238;-74
2022/02/15 09:51:49;;;;;;;32.23;16.30;;;9.30;64.50;;;;;;5091720;28;20225;-75
2022/02/15 09:54:37;;;;;;;30.27;15.23;;;9.40;64.60;;;;;;5092835;28;20280;-74
2022/02/15 09:57:25;;;;;;;32.17;15.60;;;9.30;63.50;;;;;;5092153;28;20218;-75
2022/02/15 10:00:15;;;;;;;35.63;15.80;;;9.40;63.30;;;;;;5092661;28;20228;-75
2022/02/15 10:03:03;;;;;;;40.57;17.53;;;9.60;63.20;;;;;;5093191;28;20199;-75
2022/02/15 10:05:51;;;;;;;35.27;15.60;;;9.50;63.20;;;;;;5093189;28;20203;-74
2022/02/15 10:08:39;;;;;;;34.33;18.17;;;9.80;64.20;;;;;;5092860;28;20563;-75
2022/02/15 10:11:36;;;;;;;39.97;17.20;;;9.90;62.50;;;;;;5091960;28;20218;-74
2022/02/15 10:14:24;;;;;;;34.57;17.70;;;9.80;61.30;;;;;;5091961;28;20199;-75
2022/02/15 10:17:14;;;;;;;33.23;13.53;;;9.80;61.90;;;;;;5092120;28;20215;-74
2022/02/15 10:20:03;;;;;;;30.03;14.80;;;9.80;61.30;;;;;;5091415;28;20200;-75
2022/02/15 10:22:50;;;;;;;28.53;14.07;;;10.00;61.10;;;;;;5091857;28;20196;-74
2022/02/15 10:25:38;;;;;;;35.13;17.33;;;10.30;60.00;;;;;;5091977;28;20223;-74
2022/02/15 10:28:26;;;;;;;26.33;12.63;;;10.50;59.50;;;;;;5092309;28;20663;-75
2022/02/15 10:31:15;;;;;;;28.97;14.07;;;11.00;57.30;;;;;;5092313;28;20569;-74
2022/02/15 10:34:06;;;;;;;22.83;11.30;;;10.90;57.10;;;;;;5092391;28;20607;-75
2022/02/15 10:36:55;;;;;;;22.17;10.80;;;10.70;56.70;;;;;;5092269;28;20286;-75
2022/02/15 10:39:44;;;;;;;21.23;10.70;;;10.60;57.10;;;;;;5093038;28;20195;-74
2022/02/15 10:42:32;;;;;;;18.73;9.23;;;10.50;56.60;;;;;;5092757;28;20200;-75
2022/02/15 10:45:19;;;;;;;18.57;9.07;;;10.30;56.40;;;;;;5092507;28;20575;-74
2022/02/15 10:48:08;;;;;;;24.43;10.27;;;10.10;56.60;;;;;;5091274;28;20226;-75
2022/02/15 10:50:57;;;;;;;28.07;12.93;;;10.20;57.10;;;;;;5091619;28;20200;-75
2022/02/15 10:53:45;;;;;;;25.03;11.90;;;10.40;57.60;;;;;;5092975;28;20621;-75
2022/02/15 10:56:33;;;;;;;24.07;12.27;;;10.80;57.60;;;;;;5091424;28;20207;-74
2022/02/15 10:59:21;;;;;;;32.97;13.13;;;10.80;56.40;;;;;;5091062;28;20188;-74
2022/02/15 11:02:15;;;;;;;34.97;16.03;;;10.90;56.00;;;;;;5091430;28;20230;-75
2022/02/15 11:05:02;;;;;;;23.10;10.60;;;11.30;55.80;;;;;;5092602;28;20503;-74
2022/02/15 11:07:51;;;;;;;26.73;12.63;;;11.40;54.40;;;;;;5095430;28;20285;-75
2022/02/15 11:10:52;;;;;;;21.53;10.43;;;11.40;55.00;;;;;;5094781;28;20216;-74
2022/02/15 11:13:39;;;;;;;30.63;13.23;;;11.20;54.20;;;;;;5095859;28;20197;-75
2022/02/15 11:16:27;;;;;;;34.40;14.23;;;11.10;54.70;;;;;;5095875;28;20202;-75
2022/02/15 11:19:14;;;;;;;35.33;14.07;;;11.20;54.70;;;;;;5095236;28;20339;-75
2022/02/15 11:22:04;;;;;;;28.90;12.10;;;11.30;55.40;;;;;;5095042;28;20196;-75
2022/02/15 11:24:53;;;;;;;34.23;14.17;;;11.70;55.20;;;;;;5095104;28;20203;-75
2022/02/15 11:27:40;;;;;;;22.63;11.87;;;11.60;53.20;;;;;;5094505;28;20263;-75
2022/02/15 11:30:28;;;;;;;21.00;9.90;;;11.40;53.70;;;;;;5094789;28;20197;-75
2022/02/15 11:33:21;;;;;;;28.70;13.13;;;11.40;54.00;;;;;;5095713;28;20774;-74
2022/02/15 11:36:13;;;;;;;26.63;12.90;;;11.20;54.00;;;;;;5094003;28;20231;-75
2022/02/15 11:39:02;;;;;;;30.47;13.50;;;11.40;53.90;;;;;;5095642;28;20229;-74
2022/02/15 11:41:52;;;;;;;28.67;12.87;;;11.50;53.40;;;;;;5094974;28;20198;-75
2022/02/15 11:44:40;;;;;;;34.30;15.03;;;11.40;53.70;;;;;;5094895;28;20666;-74
2022/02/15 11:47:29;;;;;;;30.47;14.20;;;11.20;54.40;;;;;;5094803;28;20276;-74
2022/02/15 11:50:17;;;;;;;32.10;14.93;;;11.20;54.40;;;;;;5094365;28;20207;-75
2022/02/15 11:53:04;;;;;;;26.53;12.00;;;11.50;54.20;;;;;;5094785;28;20203;-74
2022/02/15 11:55:52;;;;;;;26.37;12.50;;;11.70;53.20;;;;;;5094173;28;20671;-75
2022/02/15 11:58:45;;;;;;;28.67;14.10;;;12.00;52.60;;;;;;5094499;28;20216;-75
2022/02/15 12:01:33;;;;;;;20.57;10.40;;;12.00;53.10;;;;;;5093712;28;20607;-74
2022/02/15 12:04:21;;;;;;;24.13;12.77;;;11.80;52.50;;;;;;5093573;28;20289;-75
2022/02/15 12:07:08;;;;;;;25.67;11.27;;;11.80;54.00;;;;;;5094611;28;20203;-75
2022/02/15 12:09:56;;;;;;;25.87;12.97;;;11.70;53.20;;;;;;5094836;28;20306;-75
2022/02/15 12:12:46;;;;;;;31.80;14.53;;;11.50;53.50;;;;;;5094399;28;20196;-75
2022/02/15 12:15:38;;;;;;;29.63;13.93;;;11.80;53.40;;;;;;5095447;28;20198;-75
2022/02/15 12:18:29;;;;;;;29.97;12.90;;;11.80;53.70;;;;;;5093849;28;20216;-74
2022/02/15 12:21:17;;;;;;;24.07;12.10;;;12.00;52.70;;;;;;5093943;28;20197;-75
2022/02/15 12:24:05;;;;;;;28.30;13.90;;;12.60;53.00;;;;;;5094561;28;20204;-75
2022/02/15 12:26:54;;;;;;;29.47;13.57;;;12.60;51.60;;;;;;5094006;28;20202;-75
2022/02/15 12:29:41;;;;;;;23.37;12.53;;;12.70;50.90;;;;;;5094646;28;20200;-75
2022/02/15 12:32:31;;;;;;;23.93;11.80;;;12.70;50.70;;;;;;5093612;28;20206;-74
2022/02/15 12:35:25;;;;;;;27.87;12.57;;;12.50;50.50;;;;;;5094651;28;20207;-74
2022/02/15 12:38:13;;;;;;;24.80;12.50;;;12.40;51.30;;;;;;5093050;28;20226;-74
2022/02/15 12:41:00;;;;;;;23.10;11.40;;;12.60;51.10;;;;;;5094449;28;20203;-74
2022/02/15 12:43:49;;;;;;;28.47;13.40;;;13.40;50.60;;;;;;5092828;28;20214;-75
2022/02/15 12:46:36;;;;;;;27.73;14.47;;;13.90;48.60;;;;;;5093444;28;20284;-75
2022/02/15 12:49:25;;;;;;;31.77;14.07;;;14.30;48.20;;;;;;5093226;28;20309;-75
2022/02/15 12:52:14;;;;;;;28.87;13.67;;;14.60;48.30;;;;;;5093732;28;20222;-75
2022/02/15 12:55:10;;;;;;;27.07;13.30;;;14.80;46.90;;;;;;5093638;28;20212;-75
2022/02/15 12:57:58;;;;;;;30.50;13.70;;;15.00;45.40;;;;;;5094340;28;20222;-75
2022/02/15 13:00:45;;;;;;;24.23;13.77;;;14.90;45.70;;;;;;5094511;28;20203;-75
2022/02/15 13:03:34;;;;;;;28.80;12.57;;;15.50;47.10;;;;;;5085718;28;20200;-75
2022/02/15 13:06:23;;;;;;;18.93;10.10;;;16.20;44.50;;;;;;5093068;28;20237;-74
2022/02/15 13:09:11;;;;;;;23.23;10.00;;;15.80;43.80;;;;;;5092443;28;20200;-75
2022/02/15 13:12:00;;;;;;;17.30;8.80;;;14.90;44.70;;;;;;5092969;28;20199;-75
2022/02/15 13:14:50;;;;;;;18.00;9.00;;;14.50;45.10;;;;;;5094100;28;20341;-74
2022/02/15 13:17:42;;;;;;;18.23;8.93;;;13.80;46.20;;;;;;5093438;28;20220;-74
2022/02/15 13:20:31;;;;;;;19.67;8.80;;;13.00;47.90;;;;;;5093409;28;20218;-74
2022/02/15 13:23:20;;;;;;;18.63;9.27;;;12.80;48.30;;;;;;5092569;28;20197;-75
2022/02/15 13:26:10;;;;;;;23.10;9.33;;;13.40;48.80;;;;;;5093214;28;20655;-74
2022/02/15 13:28:58;;;;;;;19.13;9.10;;;13.40;48.50;;;;;;5093246;28;20243;-75
2022/02/15 13:31:46;;;;;;;20.83;9.83;;;13.50;48.70;;;;;;5093777;28;20203;-75
2022/02/15 13:34:34;;;;;;;19.87;9.60;;;14.00;47.90;;;;;;5092855;28;20208;-74
2022/02/15 13:37:31;;;;;;;22.33;11.13;;;14.40;47.30;;;;;;5092942;28;20204;-75
2022/02/15 13:40:20;;;;;;;19.23;9.00;;;14.70;46.90;;;;;;5093027;28;20203;-75
2022/02/15 13:43:08;;;;;;;24.20;11.63;;;14.50;46.20;;;;;;5092575;28;20578;-74
2022/02/15 13:45:56;;;;;;;22.03;11.33;;;15.00;46.60;;;;;;5093082;28;20688;-74
2022/02/15 13:48:43;;;;;;;23.00;11.63;;;15.50;45.50;;;;;;5092944;28;20592;-75
2022/02/15 13:51:31;;;;;;;24.03;11.43;;;15.90;45.40;;;;;;5092217;28;20199;-75
2022/02/15 13:54:19;;;;;;;20.43;10.93;;;16.40;44.60;;;;;;5091831;28;20202;-74
2022/02/15 13:57:08;;;;;;;24.20;11.63;;;16.70;42.90;;;;;;5092801;28;20266;-75
2022/02/15 13:59:55;;;;;;;23.37;11.43;;;16.30;43.20;;;;;;5093349;28;20202;-74
2022/02/15 14:02:43;;;;;;;25.00;11.80;;;15.70;44.70;;;;;;5092041;28;20192;-74
2022/02/15 14:05:31;;;;;;;27.33;12.17;;;16.30;44.30;;;;;;5092238;28;20212;-74
2022/02/15 14:08:18;;;;;;;19.73;11.37;;;16.40;43.30;;;;;;5092837;28;20195;-74
2022/02/15 14:11:06;;;;;;;23.23;11.67;;;16.40;43.20;;;;;;5093394;28;20221;-75
2022/02/15 14:13:55;;;;;;;21.43;11.00;;;16.70;43.70;;;;;;5092033;28;20281;-75
2022/02/15 14:16:42;;;;;;;23.57;10.30;;;17.20;42.40;;;;;;5092027;28;20281;-75
2022/02/15 14:19:30;;;;;;;26.30;12.37;;;17.30;41.50;;;;;;5091781;28;20710;-75
2022/02/15 14:22:17;;;;;;;27.23;12.37;;;17.70;41.30;;;;;;5092032;28;20203;-75